Flight Track Log - Related Links

Times and Time Zones

All times are in EDT time to prevent confusion due to time zone crossing. See the N221CH flight status page for this flight to view local times or setup timezone preferences in your user account.

Time Position Orientation Groundspeed Altitude Reporting Facility
EDT Latitude Longitude Course Direction KTS MPH feet Rate Location/Type
Tue 08:57:58 PM 35.4097 -82.4486 69° East 160 184 5,800  Level Atlanta Center
Tue 08:58:58 PM 35.4278 -82.3975 67° East 165 190 6,500 600 Climbing Atlanta Center
Tue 08:59:58 PM 35.4500 -82.3433 63° Northeast 171 197 7,000 250 Climbing Atlanta Center
Tue 09:00:58 PM 35.4742 -82.2842 63° Northeast 176 203 7,000  Level Atlanta Center
Tue 09:01:00 PM 35.5486 -82.1799 69° East  Level FlightAware Approximate
Tue 09:01:58 PM 35.4961 -82.2200 67° East 188 216 7,000  Level Atlanta Center
Tue 09:02:58 PM 35.5244 -82.1556 62° Northeast 200 230 7,000  Level Atlanta Center
Tue 09:03:58 PM 35.5464 -82.0914 67° East 200 230 7,000  Level Atlanta Center
Tue 09:04:58 PM 35.5703 -82.0294 65° Northeast 195 224 7,000  Level Atlanta Center
Tue 09:05:58 PM 35.5944 -81.9675 64° Northeast 195 224 7,000 50 Level Atlanta Center
Tue 09:06:58 PM 35.6203 -81.9031 64° Northeast 195 224 7,100 50 Climbing Atlanta Center
Tue 09:07:58 PM 35.6422 -81.8411 66° East 195 224 7,100  Level Atlanta Center
Tue 09:08:58 PM 35.6661 -81.7792 65° Northeast 195 224 7,100  Level Atlanta Center
Tue 09:09:58 PM 35.6878 -81.7144 68° East 195 224 7,100 -100 Level Atlanta Center
Tue 09:10:58 PM 35.7117 -81.6500 65° Northeast 195 224 6,900 -100 Descending Atlanta Center
Tue 09:11:58 PM 35.7375 -81.5878 63° Northeast 195 224 6,900 100 Level Atlanta Center
Tue 09:12:58 PM 35.7614 -81.5283 64° Northeast 195 224 7,100 100 Climbing Atlanta Center
Tue 09:13:58 PM 35.7872 -81.4661 63° Northeast 195 224 7,100  Level Atlanta Center
Tue 09:14:58 PM 35.8089 -81.4014 68° East 195 224 7,100  Level Atlanta Center
Tue 09:15:58 PM 35.8136 -81.3319 85° East 195 224 7,100  Level Atlanta Center
Tue 09:16:58 PM 35.8161 -81.2628 87° East 189 217 7,100  Level Atlanta Center
Tue 09:17:58 PM 35.8167 -81.1886 89° East 194 223 7,100  Level Atlanta Center
Tue 09:18:58 PM 35.8192 -81.1219 87° East 199 229 7,100  Level Atlanta Center
Tue 09:19:58 PM 35.8239 -81.0525 85° East 199 229 7,100  Level Atlanta Center
Tue 09:20:58 PM 35.8261 -80.9833 88° East 199 229 7,100  Level Atlanta Center
Tue 09:21:58 PM 35.8267 -80.9167 89° East 199 229 7,100  Level Atlanta Center
Tue 09:22:58 PM 35.8292 -80.8475 87° East 199 229 7,100  Level Atlanta Center
Tue 09:23:58 PM 35.8314 -80.7781 88° East 199 229 7,100  Level Atlanta Center
Tue 09:24:58 PM 35.8336 -80.7089 88° East 199 229 7,100  Level Atlanta Center
Tue 09:25:58 PM 35.8339 -80.6422 90° East 199 229 7,100 -50 Level Atlanta Center
Tue 09:26:58 PM 35.8383 -80.5706 86° East 199 229 7,000  Descending Atlanta Center
Tue 09:27:58 PM 35.8386 -80.5064 90° East 194 223 7,100 50 Climbing Atlanta Center
Tue 09:28:58 PM 35.8406 -80.4372 88° East 194 223 7,100  Level Atlanta Center
Tue 09:29:58 PM 35.8428 -80.3678 88° East 194 223 7,100  Level Atlanta Center
Tue 09:39:37 PM 35.8617 -79.7208 90° East 197 227 7,100  Level Washington Center
Tue 09:40:00 PM 35.8484 -79.7434 90° East  Level FlightAware Approximate
Tue 09:40:39 PM 35.8639 -79.6544 88° East 198 228 7,100  Level Washington Center
Tue 09:41:00 PM 35.8488 -79.6811 90° East  Level FlightAware Approximate
Tue 09:41:41 PM 35.8639 -79.5878 90° East 196 226 7,100  Level Washington Center
Tue 09:42:00 PM 35.8491 -79.6189 90° East  Level FlightAware Approximate
Tue 09:42:47 PM 35.8667 -79.5111 87° East 195 224 7,100  Level Washington Center
Tue 09:43:00 PM 35.8495 -79.5566 90° East  Level FlightAware Approximate
Tue 09:43:45 PM 35.8647 -79.4417 92° East 194 223 7,100  Level Washington Center
Tue 09:44:00 PM 35.8498 -79.4944 90° East  Level FlightAware Approximate
Tue 09:44:40 PM 35.8603 -79.3825 95° East 198 228 6,800  Level Washington Center
Tue 09:45:47 PM 35.8436 -79.3150 107° East 188 216 6,100 -609 Descending Washington Center
Tue 09:46:48 PM 35.8267 -79.2528 109° East 187 215 5,500 -683 Descending Washington Center
Tue 09:47:50 PM 35.8056 -79.1931 114° Southeast 184 212 4,700 -700 Descending Washington Center
Tue 09:48:48 PM 35.7928 -79.1361 105° East 170 196 4,100 -605 Descending Washington Center
Tue 09:49:49 PM 35.7756 -79.0842 112° Southeast 160 184 3,500 -893 Descending Washington Center
Tue 09:50:49 PM 35.7603 -79.0347 111° Southeast 154 177 2,300 -639 Descending Washington Center
Tue 09:51:51 PM 35.7489 -78.9908 108° East 136 157 2,200 -103 Descending Washington Center
Tue 09:52:45 PM 35.7564 -78.9503 77° East 122 140 2,100  Descending Washington Center
Tue 09:53:46 PM 35.7781 -78.9203 48° Northeast 116 133 2,200 49 Climbing Washington Center
Tue 09:54:47 PM 35.8017 -78.8958 40° Northeast 114 131 2,200 -148 Level Washington Center
Tue 09:55:48 PM 35.8256 -78.8658 46° Northeast 116 133 1,900 -492 Descending Washington Center
Tue 09:56:49 PM 35.8450 -78.8386 49° Northeast 116 133 1,200 -639 Descending Washington Center
Tue 09:57:50 PM 35.8686 -78.8089 46° Northeast 110 127 600 -590 Descending Washington Center
Tue 09:59:00 PM 35.8667 -78.7833 49° Northeast  Level FlightAware Approximate
Tue 10:06:00 PM 35.8776 -78.7875 343° North  Level Estimated

Login

Don't have an account? Register now (free) for customized features, flight alerts, and more!